This is the latest recevied weather packets stored in our database for station/object WMKD. If no packets are shown the sender has not sent any weather packets the latest 1 day(s).
| Time | Temp. | Humidity | Pressure | Rain* | Wind** | Luminosity | Snow |
|---|---|---|---|---|---|---|---|
| 1778058594 | 32.78° C | 55% | 1005 hPa | - | 3.58 m/s, 90° | - | - |
| 1778054993 | 33.89° C | 52% | 1004 hPa | - | 3.58 m/s, 0° | - | - |
| 1778051398 | 33.89° C | 56% | 1005 hPa | - | 2.68 m/s, 100° | - | - |
| 1778047793 | 33.89° C | 56% | 1007 hPa | - | 2.68 m/s, 110° | - | - |
| 1778044193 | 32.78° C | 59% | 1008 hPa | - | 1.79 m/s, 90° | - | - |
| 1778040593 | 31.67° C | 66% | 1008 hPa | - | 1.34 m/s, 0° | - | - |
| 1778036996 | 30.56° C | 70% | 1009 hPa | - | 0.89 m/s, 0° | - | - |
| 1778033393 | 30.56° C | 74% | 1009 hPa | - | 0.45 m/s, 0° | - | - |
| 1778029794 | 27.78° C | 83% | 1008 hPa | - | 0 m/s | - | - |
| 1778026193 | 25.56° C | 88% | 1008 hPa | - | 0 m/s | - | - |
| 1778023189 | 25° C | 94% | 1007 hPa | - | 0 m/s | - | - |
| 1778022593 | 25° C | 94% | 1007 hPa | - | 0 m/s | - | - |
| 1778018996 | 25° C | 94% | 1007 hPa | - | 0.89 m/s, 0° | - | - |
| 1778015393 | 25° C | 94% | 1007 hPa | - | 0.45 m/s, 0° | - | - |
| 1778011792 | 25.56° C | 88% | 1007 hPa | - | 0 m/s | - | - |
| 1778008193 | 25.56° C | 88% | 1007 hPa | - | 1.34 m/s, 0° | - | - |
| 1778004596 | 25.56° C | 94% | 1008 hPa | - | 0.45 m/s, 0° | - | - |
| 1778000992 | 26.67° C | 88% | 1009 hPa | - | 0.89 m/s, 0° | - | - |
| 1777997393 | 26.67° C | 88% | 1008 hPa | - | 1.34 m/s, 350° | - | - |
| 1777994992 | 26.67° C | 88% | 1008 hPa | - | 1.79 m/s, 340° | - | - |
| 1777994407 | 27.22° C | 80% | 1010.5 hPa | - | 0.45 m/s, 184° | - | - |
| 1777993792 | 26.67° C | 88% | 1008 hPa | - | 1.79 m/s, 340° | - | - |
| 1777990192 | 27.78° C | 83% | 1008 hPa | - | 0.89 m/s, 0° | - | - |
| 1777986599 | 27.78° C | 88% | 1007 hPa | - | 0.89 m/s, 0° | - | - |
| 1777982992 | 30° C | 74% | 1006 hPa | - | 1.34 m/s, 80° | - | - |
* Rain since midnight (hover to see other rain measurements)
** Current wind speed in m/s (hover to see current wind gust speed)